Time;durP1;ratioP1;P1;durP2;ratioP2;P2;SDS_P1;SDS_P2;PMS_P1;PMS_P2;Temp;Humidity;BMP_temperature;BMP_pressure;BME280_temperature;BME280_humidity;BME280_pressure;Samples;Min_cycle;Max_cycle;Signal;HPM_P1;HPM_P2
2024/01/20 00:01:55;;;;;;;17.57;11.70;;;;;;;;;;5100017;28;20474;-79
2024/01/20 00:04:22;;;;;;;16.60;11.00;;;;;;;;;;5100074;28;20553;-78
2024/01/20 00:06:48;;;;;;;25.67;12.70;;;;;;;;;;5100650;28;20601;-78
2024/01/20 00:09:15;;;;;;;16.90;12.20;;;;;;;;;;5099133;28;20553;-79
2024/01/20 00:11:41;;;;;;;22.60;13.43;;;;;;;;;;5100989;28;21044;-78
2024/01/20 00:14:09;;;;;;;18.60;12.40;;;;;;;;;;5099737;28;20478;-78
2024/01/20 00:16:37;;;;;;;20.37;12.87;;;;;;;;;;5099077;28;20489;-78
2024/01/20 00:19:03;;;;;;;18.90;12.03;;;;;;;;;;5101087;28;20470;-78
2024/01/20 00:21:31;;;;;;;20.90;13.47;;;;;;;;;;5099323;28;20809;-78
2024/01/20 00:23:58;;;;;;;17.63;12.67;;;;;;;;;;5099694;28;20570;-78
2024/01/20 00:26:24;;;;;;;19.70;14.40;;;;;;;;;;5098917;28;20514;-79
2024/01/20 00:28:53;;;;;;;22.43;13.77;;;;;;;;;;5100946;28;20540;-78
2024/01/20 00:31:21;;;;;;;17.27;13.53;;;;;;;;;;5097891;28;20475;-78
2024/01/20 00:33:47;;;;;;;19.93;13.27;;;;;;;;;;5099276;28;20549;-79
2024/01/20 00:36:14;;;;;;;18.97;12.93;;;;;;;;;;5095206;28;20565;-78
2024/01/20 00:38:41;;;;;;;27.43;14.27;;;;;;;;;;5098979;28;20835;-78
2024/01/20 00:41:11;;;;;;;19.90;14.70;;;;;;;;;;5096101;28;20443;-80
2024/01/20 00:43:37;;;;;;;17.77;13.77;;;;;;;;;;5098822;28;20494;-79
2024/01/20 00:46:04;;;;;;;23.00;15.13;;;;;;;;;;5098425;28;20530;-79
2024/01/20 00:48:32;;;;;;;16.30;13.37;;;;;;;;;;5098836;28;20466;-79
2024/01/20 00:50:59;;;;;;;22.80;17.63;;;;;;;;;;5100078;28;20623;-79
2024/01/20 00:53:25;;;;;;;26.83;16.53;;;;;;;;;;5097009;28;20569;-77
2024/01/20 00:55:51;;;;;;;24.90;17.23;;;;;;;;;;5098164;28;21048;-77
2024/01/20 00:58:18;;;;;;;26.60;15.67;;;;;;;;;;5096745;28;20554;-78
2024/01/20 01:00:46;;;;;;;17.37;14.50;;;;;;;;;;5098841;28;20454;-77
2024/01/20 01:03:13;;;;;;;19.13;15.03;;;;;;;;;;5097281;28;20529;-78
2024/01/20 01:05:42;;;;;;;17.67;14.13;;;;;;;;;;5097418;28;20560;-76
2024/01/20 01:08:08;;;;;;;25.13;15.33;;;;;;;;;;5095947;28;20510;-79
2024/01/20 01:10:35;;;;;;;25.90;16.50;;;;;;;;;;5098135;28;20499;-78
2024/01/20 01:13:01;;;;;;;22.53;16.50;;;;;;;;;;5097980;28;20486;-78
2024/01/20 01:15:29;;;;;;;24.20;15.03;;;;;;;;;;5093966;28;20974;-79
2024/01/20 01:17:55;;;;;;;22.77;15.53;;;;;;;;;;5099668;28;20470;-77
2024/01/20 01:20:22;;;;;;;25.10;19.07;;;;;;;;;;5097336;28;20953;-79
2024/01/20 01:22:50;;;;;;;23.73;16.40;;;;;;;;;;5099095;28;20503;-79
2024/01/20 01:25:19;;;;;;;24.87;15.40;;;;;;;;;;5096974;28;20585;-78
2024/01/20 01:27:47;;;;;;;24.50;16.83;;;;;;;;;;5099263;28;20501;-79
2024/01/20 01:30:13;;;;;;;20.13;15.57;;;;;;;;;;5098800;28;20522;-78
2024/01/20 01:32:40;;;;;;;23.97;17.63;;;;;;;;;;5099332;28;20807;-78
2024/01/20 01:35:08;;;;;;;25.10;17.77;;;;;;;;;;5099564;28;20549;-79
2024/01/20 01:37:36;;;;;;;20.87;16.53;;;;;;;;;;5099258;28;21107;-78
2024/01/20 01:40:04;;;;;;;18.57;16.47;;;;;;;;;;5097746;28;20490;-79
2024/01/20 01:42:33;;;;;;;23.20;16.60;;;;;;;;;;5098675;28;20545;-78
2024/01/20 01:45:00;;;;;;;35.20;17.90;;;;;;;;;;5097927;28;20777;-78
2024/01/20 01:47:26;;;;;;;28.83;18.47;;;;;;;;;;5098939;28;20537;-78
2024/01/20 01:49:53;;;;;;;29.63;18.60;;;;;;;;;;5098390;28;20506;-78
2024/01/20 01:52:21;;;;;;;26.87;17.47;;;;;;;;;;5096080;28;20898;-78
2024/01/20 01:54:48;;;;;;;29.50;18.10;;;;;;;;;;5097072;28;20549;-78
2024/01/20 01:57:15;;;;;;;24.37;16.50;;;;;;;;;;5095635;28;20550;-78
2024/01/20 01:59:42;;;;;;;30.40;19.00;;;;;;;;;;5097612;28;20438;-78
2024/01/20 02:02:09;;;;;;;26.83;18.57;;;;;;;;;;5094704;28;20506;-78
2024/01/20 02:04:36;;;;;;;25.07;18.60;;;;;;;;;;5096818;28;20942;-78
2024/01/20 02:07:03;;;;;;;23.33;18.03;;;;;;;;;;5097932;28;20557;-78
2024/01/20 02:09:30;;;;;;;31.37;20.07;;;;;;;;;;5098260;28;20513;-78
2024/01/20 02:11:58;;;;;;;27.00;20.13;;;;;;;;;;5097641;28;20493;-79
2024/01/20 02:14:26;;;;;;;27.30;19.83;;;;;;;;;;5098729;28;20439;-79
2024/01/20 02:16:52;;;;;;;26.10;20.20;;;;;;;;;;5098738;28;20836;-77
2024/01/20 02:19:19;;;;;;;27.30;20.37;;;;;;;;;;5097448;28;20514;-78
2024/01/20 02:21:46;;;;;;;27.27;20.30;;;;;;;;;;5096313;28;20561;-77
2024/01/20 02:24:13;;;;;;;30.97;22.30;;;;;;;;;;5098573;28;20601;-78
2024/01/20 02:26:40;;;;;;;28.60;21.30;;;;;;;;;;5098004;28;20544;-77
2024/01/20 02:29:07;;;;;;;27.60;21.20;;;;;;;;;;5099556;28;20513;-78
2024/01/20 02:31:33;;;;;;;32.07;22.17;;;;;;;;;;5098238;28;21053;-77
2024/01/20 02:34:00;;;;;;;26.90;22.40;;;;;;;;;;5098408;28;20525;-78
2024/01/20 02:36:27;;;;;;;37.00;22.87;;;;;;;;;;5098222;28;20471;-80
2024/01/20 02:38:56;;;;;;;31.50;23.50;;;;;;;;;;5100273;28;20499;-78
2024/01/20 02:41:30;;;;;;;25.97;21.23;;;;;;;;;;5096451;28;20478;-77
2024/01/20 02:43:57;;;;;;;29.83;22.90;;;;;;;;;;5098630;28;20509;-78
2024/01/20 02:46:23;;;;;;;27.17;22.97;;;;;;;;;;5097083;28;20494;-78
2024/01/20 02:48:49;;;;;;;28.10;21.57;;;;;;;;;;5098779;28;20454;-78
2024/01/20 02:51:16;;;;;;;35.87;23.33;;;;;;;;;;5098007;28;20546;-77
2024/01/20 02:53:43;;;;;;;34.07;22.30;;;;;;;;;;5098942;28;20446;-78
2024/01/20 02:56:10;;;;;;;32.20;23.67;;;;;;;;;;5095168;28;20557;-78
2024/01/20 02:58:38;;;;;;;30.13;22.83;;;;;;;;;;5099133;28;20510;-78
2024/01/20 03:01:06;;;;;;;31.83;24.70;;;;;;;;;;5096344;28;20529;-78
2024/01/20 03:03:33;;;;;;;39.90;25.27;;;;;;;;;;5101289;28;20529;-77
2024/01/20 03:05:59;;;;;;;31.93;23.47;;;;;;;;;;5100579;28;20561;-77
2024/01/20 03:08:26;;;;;;;31.07;23.67;;;;;;;;;;5100259;28;20534;-77
2024/01/20 03:10:54;;;;;;;36.27;23.80;;;;;;;;;;5100449;28;20548;-77
2024/01/20 03:13:20;;;;;;;35.20;25.27;;;;;;;;;;5099089;28;20996;-78
2024/01/20 03:15:48;;;;;;;31.40;24.33;;;;;;;;;;5100639;28;20496;-77
2024/01/20 03:18:15;;;;;;;30.03;22.90;;;;;;;;;;5098524;28;20477;-77
2024/01/20 03:20:43;;;;;;;34.13;23.57;;;;;;;;;;5100364;28;20502;-78
2024/01/20 03:23:09;;;;;;;37.70;25.10;;;;;;;;;;5098970;28;20515;-78
2024/01/20 03:25:36;;;;;;;32.20;24.57;;;;;;;;;;5099576;28;20588;-78
2024/01/20 03:28:02;;;;;;;34.77;24.10;;;;;;;;;;5099117;28;20541;-78
2024/01/20 03:30:29;;;;;;;45.67;27.90;;;;;;;;;;5099973;28;20465;-78
2024/01/20 03:32:57;;;;;;;27.73;22.50;;;;;;;;;;5099819;28;20522;-78
2024/01/20 03:35:23;;;;;;;34.57;23.57;;;;;;;;;;5100036;28;20454;-78
2024/01/20 03:37:51;;;;;;;33.13;22.13;;;;;;;;;;5100864;28;20544;-77
2024/01/20 03:40:18;;;;;;;34.90;25.13;;;;;;;;;;5099464;28;20503;-78
2024/01/20 03:42:47;;;;;;;33.40;23.97;;;;;;;;;;5100523;28;20525;-79
2024/01/20 03:45:14;;;;;;;28.73;24.63;;;;;;;;;;5098558;28;20484;-78
2024/01/20 03:47:40;;;;;;;37.30;26.17;;;;;;;;;;5101435;28;20549;-79
2024/01/20 03:50:09;;;;;;;28.50;21.27;;;;;;;;;;5100198;28;20591;-78
2024/01/20 03:52:36;;;;;;;31.37;23.37;;;;;;;;;;5101485;28;20549;-78
2024/01/20 03:55:02;;;;;;;39.07;23.20;;;;;;;;;;5097019;28;21074;-78
2024/01/20 03:57:29;;;;;;;32.50;24.23;;;;;;;;;;5102685;28;20537;-78
2024/01/20 03:59:57;;;;;;;31.73;25.20;;;;;;;;;;5101703;28;20501;-78
2024/01/20 04:02:24;;;;;;;29.60;22.30;;;;;;;;;;5098345;28;20501;-78
2024/01/20 04:04:50;;;;;;;35.03;23.33;;;;;;;;;;5098606;28;20542;-78
2024/01/20 04:07:18;;;;;;;32.80;23.40;;;;;;;;;;5098538;28;20564;-78
2024/01/20 04:09:45;;;;;;;30.50;23.03;;;;;;;;;;5098595;28;20442;-77
2024/01/20 04:12:12;;;;;;;31.30;24.27;;;;;;;;;;5096655;28;20748;-77
2024/01/20 04:14:38;;;;;;;32.80;22.07;;;;;;;;;;5099824;28;20462;-77
2024/01/20 04:17:04;;;;;;;32.53;24.10;;;;;;;;;;5098761;28;21056;-79
2024/01/20 04:19:31;;;;;;;32.30;23.37;;;;;;;;;;5098642;28;20536;-78
2024/01/20 04:21:57;;;;;;;43.50;25.47;;;;;;;;;;5100385;28;20529;-79
2024/01/20 04:24:25;;;;;;;32.20;25.10;;;;;;;;;;5096967;28;20521;-78
2024/01/20 04:26:52;;;;;;;36.87;25.67;;;;;;;;;;5100201;28;20537;-78
2024/01/20 04:29:18;;;;;;;37.77;25.30;;;;;;;;;;5098263;28;20546;-79
2024/01/20 04:31:45;;;;;;;33.00;23.87;;;;;;;;;;5100624;28;20473;-78
2024/01/20 04:34:11;;;;;;;37.63;25.60;;;;;;;;;;5098496;28;20593;-79
2024/01/20 04:36:40;;;;;;;39.87;26.80;;;;;;;;;;5099677;28;20466;-77
2024/01/20 04:39:07;;;;;;;35.83;24.40;;;;;;;;;;5097635;28;20538;-78
2024/01/20 04:41:35;;;;;;;32.83;25.07;;;;;;;;;;5099649;28;20540;-78
2024/01/20 04:44:02;;;;;;;35.80;25.53;;;;;;;;;;5095641;28;20519;-78
2024/01/20 04:46:28;;;;;;;35.00;26.30;;;;;;;;;;5094546;28;20521;-78
2024/01/20 04:48:55;;;;;;;31.93;25.50;;;;;;;;;;5100545;28;21036;-78
2024/01/20 04:51:21;;;;;;;41.63;26.60;;;;;;;;;;5098460;28;20506;-77
2024/01/20 04:53:48;;;;;;;41.40;25.30;;;;;;;;;;5098827;28;20990;-78
2024/01/20 04:56:17;;;;;;;39.57;25.67;;;;;;;;;;5097902;28;20521;-78
2024/01/20 04:58:45;;;;;;;40.40;25.70;;;;;;;;;;5099248;28;20502;-78
2024/01/20 05:01:13;;;;;;;48.80;27.50;;;;;;;;;;5095097;28;20514;-77
2024/01/20 05:03:40;;;;;;;38.73;26.50;;;;;;;;;;5098562;28;20533;-78
2024/01/20 05:06:06;;;;;;;40.37;26.60;;;;;;;;;;5098495;28;20550;-78
2024/01/20 05:08:33;;;;;;;40.50;27.73;;;;;;;;;;5099432;28;20624;-78
2024/01/20 05:10:59;;;;;;;37.10;26.83;;;;;;;;;;5099702;28;20878;-78
2024/01/20 05:13:26;;;;;;;40.07;26.93;;;;;;;;;;5098735;28;20557;-77
2024/01/20 05:15:55;;;;;;;41.27;25.07;;;;;;;;;;5099328;28;20549;-78
2024/01/20 05:18:21;;;;;;;40.87;27.60;;;;;;;;;;5096304;28;20506;-78
2024/01/20 05:20:48;;;;;;;44.50;27.17;;;;;;;;;;5099738;28;20448;-78
2024/01/20 05:23:15;;;;;;;48.03;27.87;;;;;;;;;;5099064;28;20459;-78
2024/01/20 05:25:41;;;;;;;39.50;26.00;;;;;;;;;;5098279;28;20572;-77
2024/01/20 05:28:08;;;;;;;47.10;27.57;;;;;;;;;;5098104;28;20550;-78
2024/01/20 05:30:34;;;;;;;40.80;27.93;;;;;;;;;;5100524;28;20560;-78
2024/01/20 05:33:05;;;;;;;42.83;26.77;;;;;;;;;;5097830;28;20546;-78
2024/01/20 05:35:33;;;;;;;50.20;27.03;;;;;;;;;;5099084;28;20481;-78
2024/01/20 05:38:00;;;;;;;44.70;28.50;;;;;;;;;;5100026;28;20931;-78
2024/01/20 05:40:26;;;;;;;44.73;26.40;;;;;;;;;;5098742;28;20517;-78
2024/01/20 05:42:53;;;;;;;40.50;27.83;;;;;;;;;;5098102;28;20462;-78
2024/01/20 05:45:19;;;;;;;45.97;28.50;;;;;;;;;;5096320;28;21072;-78
2024/01/20 05:47:49;;;;;;;43.97;28.07;;;;;;;;;;5099311;28;20549;-77
2024/01/20 05:50:17;;;;;;;62.57;28.40;;;;;;;;;;5096927;28;20482;-78
2024/01/20 05:52:45;;;;;;;49.63;29.77;;;;;;;;;;5095749;28;20565;-79
2024/01/20 05:55:11;;;;;;;43.57;27.87;;;;;;;;;;5098045;28;20518;-78
2024/01/20 05:57:39;;;;;;;51.20;27.10;;;;;;;;;;5098815;28;20553;-78
2024/01/20 06:00:06;;;;;;;45.87;28.87;;;;;;;;;;5097274;28;20513;-78
2024/01/20 06:02:34;;;;;;;52.87;27.10;;;;;;;;;;5098954;28;20529;-78
2024/01/20 06:05:00;;;;;;;47.23;29.30;;;;;;;;;;5098894;28;20545;-78
2024/01/20 06:07:29;;;;;;;49.07;26.77;;;;;;;;;;5098217;28;20556;-78
2024/01/20 06:09:55;;;;;;;42.83;26.97;;;;;;;;;;5098097;28;20458;-78
2024/01/20 06:12:21;;;;;;;40.73;26.50;;;;;;;;;;5097694;28;21106;-78
2024/01/20 06:14:49;;;;;;;60.20;29.57;;;;;;;;;;5099309;28;20545;-78
2024/01/20 06:17:15;;;;;;;59.87;28.93;;;;;;;;;;5098113;28;20525;-78
2024/01/20 06:19:43;;;;;;;53.40;28.07;;;;;;;;;;5098946;28;20517;-78
2024/01/20 06:22:10;;;;;;;57.53;27.63;;;;;;;;;;5098015;28;21015;-77
2024/01/20 06:24:40;;;;;;;49.57;28.50;;;;;;;;;;5097665;28;20480;-78
2024/01/20 06:27:06;;;;;;;44.70;25.13;;;;;;;;;;5097853;28;20537;-78
2024/01/20 06:29:33;;;;;;;41.07;24.70;;;;;;;;;;5083064;28;20488;-77
2024/01/20 06:32:00;;;;;;;46.70;25.80;;;;;;;;;;5099394;28;20537;-78
2024/01/20 06:34:26;;;;;;;52.63;25.43;;;;;;;;;;5098529;28;20517;-78
2024/01/20 06:36:53;;;;;;;46.57;25.60;;;;;;;;;;5101269;28;20568;-78
2024/01/20 06:39:19;;;;;;;51.50;24.47;;;;;;;;;;5102513;28;20553;-78
2024/01/20 06:41:47;;;;;;;48.03;25.00;;;;;;;;;;5100554;28;20548;-78
2024/01/20 06:44:14;;;;;;;43.23;23.60;;;;;;;;;;5102336;28;20438;-78
2024/01/20 06:46:41;;;;;;;57.37;26.73;;;;;;;;;;5103453;28;20502;-79
2024/01/20 06:49:07;;;;;;;57.80;26.57;;;;;;;;;;5101646;28;20526;-78
2024/01/20 06:51:34;;;;;;;50.20;27.43;;;;;;;;;;5102352;28;20549;-78
2024/01/20 06:54:00;;;;;;;44.73;24.73;;;;;;;;;;5100690;28;20522;-78
2024/01/20 06:56:27;;;;;;;51.93;26.90;;;;;;;;;;5102190;28;20541;-78
2024/01/20 06:58:58;;;;;;;45.73;25.93;;;;;;;;;;5101601;28;20525;-78
2024/01/20 07:01:24;;;;;;;50.97;27.03;;;;;;;;;;5098729;28;20438;-77
2024/01/20 07:03:51;;;;;;;45.73;23.60;;;;;;;;;;5100416;28;21079;-78
2024/01/20 07:06:22;;;;;;;47.70;25.03;;;;;;;;;;5098741;28;20514;-77
2024/01/20 07:08:48;;;;;;;45.20;25.67;;;;;;;;;;5102356;28;20513;-77
2024/01/20 07:11:15;;;;;;;54.50;27.83;;;;;;;;;;5096772;28;20544;-78
2024/01/20 07:13:41;;;;;;;53.53;27.03;;;;;;;;;;5101754;28;20465;-78
2024/01/20 07:16:11;;;;;;;53.13;26.50;;;;;;;;;;5098899;28;20899;-78
2024/01/20 07:18:38;;;;;;;51.40;25.40;;;;;;;;;;5099784;28;20561;-78
2024/01/20 07:21:05;;;;;;;54.40;27.27;;;;;;;;;;5100517;28;20537;-78
2024/01/20 07:23:31;;;;;;;46.07;24.87;;;;;;;;;;5100824;28;20556;-77
2024/01/20 07:25:58;;;;;;;55.27;28.30;;;;;;;;;;5098903;28;20572;-77
2024/01/20 07:28:25;;;;;;;49.93;26.80;;;;;;;;;;5100400;28;20494;-78
2024/01/20 07:30:51;;;;;;;48.23;25.43;;;;;;;;;;5101445;28;20450;-78
2024/01/20 07:33:20;;;;;;;66.23;30.67;;;;;;;;;;5099170;28;21023;-78
2024/01/20 07:35:46;;;;;;;48.00;25.23;;;;;;;;;;5101083;28;20482;-79
2024/01/20 07:38:13;;;;;;;51.20;25.87;;;;;;;;;;5101640;28;20465;-79
2024/01/20 07:40:40;;;;;;;53.03;26.13;;;;;;;;;;5103049;28;20497;-78
2024/01/20 07:43:06;;;;;;;52.97;26.10;;;;;;;;;;5100302;28;20561;-79
2024/01/20 07:45:33;;;;;;;54.67;25.53;;;;;;;;;;5104586;28;20466;-78
2024/01/20 07:47:59;;;;;;;57.90;27.83;;;;;;;;;;5101893;28;20488;-78
2024/01/20 07:50:27;;;;;;;56.97;25.37;;;;;;;;;;5100002;28;20530;-79
2024/01/20 07:52:54;;;;;;;52.87;25.87;;;;;;;;;;5103976;28;20528;-78
2024/01/20 07:55:20;;;;;;;49.03;24.60;;;;;;;;;;5101644;28;20554;-78
2024/01/20 07:57:48;;;;;;;47.80;24.43;;;;;;;;;;5103820;28;20552;-78
2024/01/20 08:00:16;;;;;;;50.97;25.03;;;;;;;;;;5104670;28;20465;-78
2024/01/20 08:02:42;;;;;;;54.63;28.00;;;;;;;;;;5100474;28;20886;-78
2024/01/20 08:05:09;;;;;;;52.03;23.20;;;;;;;;;;5102966;28;20549;-78
2024/01/20 08:07:40;;;;;;;56.10;27.30;;;;;;;;;;5103230;28;20492;-78
2024/01/20 08:10:12;;;;;;;47.13;23.73;;;;;;;;;;5103666;28;20446;-80
2024/01/20 08:12:38;;;;;;;48.30;23.57;;;;;;;;;;5103854;28;20550;-78
2024/01/20 08:15:05;;;;;;;52.37;25.17;;;;;;;;;;5103502;28;21059;-80
2024/01/20 08:17:32;;;;;;;51.30;22.70;;;;;;;;;;5100277;28;20488;-78
2024/01/20 08:19:59;;;;;;;42.83;23.53;;;;;;;;;;5102800;28;20477;-79
2024/01/20 08:22:26;;;;;;;43.77;22.23;;;;;;;;;;5101973;28;20470;-78
2024/01/20 08:24:54;;;;;;;44.00;23.00;;;;;;;;;;5104952;28;20473;-78
2024/01/20 08:27:20;;;;;;;41.93;22.63;;;;;;;;;;5099862;28;20471;-78
2024/01/20 08:29:47;;;;;;;42.57;23.20;;;;;;;;;;5104703;28;20510;-78
2024/01/20 08:32:13;;;;;;;40.53;21.23;;;;;;;;;;5100335;28;20871;-79
2024/01/20 08:34:43;;;;;;;48.30;21.03;;;;;;;;;;5104249;28;20502;-78
2024/01/20 08:37:09;;;;;;;43.70;21.67;;;;;;;;;;5102074;28;20537;-78
2024/01/20 08:39:41;;;;;;;39.20;22.27;;;;;;;;;;5104485;28;20467;-78
2024/01/20 08:42:11;;;;;;;47.33;22.00;;;;;;;;;;5099983;28;20466;-79
2024/01/20 08:44:38;;;;;;;48.10;21.53;;;;;;;;;;5102700;28;20545;-79
2024/01/20 08:47:05;;;;;;;45.20;21.90;;;;;;;;;;5102812;28;20470;-78
2024/01/20 08:49:31;;;;;;;41.20;21.50;;;;;;;;;;5103011;28;20509;-78
2024/01/20 08:51:58;;;;;;;38.37;20.10;;;;;;;;;;5100187;28;21063;-79
2024/01/20 08:54:24;;;;;;;37.70;19.80;;;;;;;;;;5102046;28;20525;-79
2024/01/20 08:56:50;;;;;;;43.00;20.47;;;;;;;;;;5101368;28;20525;-78
2024/01/20 08:59:19;;;;;;;42.67;20.83;;;;;;;;;;5100211;28;20506;-78
2024/01/20 09:01:45;;;;;;;39.57;20.67;;;;;;;;;;5099012;28;20462;-80
2024/01/20 09:04:12;;;;;;;46.80;23.33;;;;;;;;;;5100132;28;20607;-78
2024/01/20 09:06:41;;;;;;;36.23;19.53;;;;;;;;;;5101162;28;20521;-79
2024/01/20 09:09:11;;;;;;;37.83;19.03;;;;;;;;;;5102706;28;20502;-79
2024/01/20 09:11:37;;;;;;;43.90;21.47;;;;;;;;;;5101226;28;20470;-79
2024/01/20 09:14:04;;;;;;;39.47;18.90;;;;;;;;;;5103121;28;20474;-79
2024/01/20 09:16:34;;;;;;;35.57;19.20;;;;;;;;;;5102669;28;20470;-78
2024/01/20 09:19:01;;;;;;;47.80;20.80;;;;;;;;;;5102402;28;20484;-78
2024/01/20 09:21:30;;;;;;;41.67;20.40;;;;;;;;;;5103306;28;20461;-78
2024/01/20 09:23:57;;;;;;;40.93;19.13;;;;;;;;;;5104793;28;20431;-79
2024/01/20 09:26:24;;;;;;;32.70;19.47;;;;;;;;;;5101126;28;21115;-78
2024/01/20 09:28:50;;;;;;;36.83;19.13;;;;;;;;;;5101992;28;20458;-79
2024/01/20 09:31:17;;;;;;;47.73;20.53;;;;;;;;;;5101808;28;20458;-78
2024/01/20 09:33:46;;;;;;;35.90;18.70;;;;;;;;;;5103650;28;20478;-77
2024/01/20 09:36:13;;;;;;;39.87;19.63;;;;;;;;;;5101682;28;20511;-78
2024/01/20 09:38:40;;;;;;;45.57;17.93;;;;;;;;;;5104622;28;20502;-79
2024/01/20 09:41:09;;;;;;;33.10;18.33;;;;;;;;;;5102039;28;20498;-79
2024/01/20 09:43:38;;;;;;;32.20;18.20;;;;;;;;;;5101622;28;20458;-78
2024/01/20 09:46:05;;;;;;;40.40;19.40;;;;;;;;;;5102568;28;20458;-79
2024/01/20 09:48:31;;;;;;;38.27;19.80;;;;;;;;;;5101713;28;20545;-79
2024/01/20 09:50:59;;;;;;;38.40;18.70;;;;;;;;;;5103027;28;20509;-79
2024/01/20 09:53:26;;;;;;;37.67;18.00;;;;;;;;;;5096520;28;20490;-79
2024/01/20 09:55:53;;;;;;;33.53;18.07;;;;;;;;;;5102439;28;20481;-78
2024/01/20 09:58:19;;;;;;;41.50;19.37;;;;;;;;;;5100674;28;20562;-79
2024/01/20 10:00:46;;;;;;;39.57;18.73;;;;;;;;;;5100805;28;20518;-78
2024/01/20 10:03:13;;;;;;;40.80;16.97;;;;;;;;;;5095047;28;20481;-78
2024/01/20 10:05:40;;;;;;;37.33;19.17;;;;;;;;;;5097408;28;20674;-80
2024/01/20 10:08:08;;;;;;;39.87;18.70;;;;;;;;;;5097707;28;20537;-78
2024/01/20 10:10:34;;;;;;;34.43;18.90;;;;;;;;;;5099828;28;20502;-77
2024/01/20 10:13:02;;;;;;;34.47;18.57;;;;;;;;;;5097557;28;20509;-79
2024/01/20 10:15:30;;;;;;;35.47;17.20;;;;;;;;;;5096778;28;20996;-79
2024/01/20 10:17:56;;;;;;;38.87;19.13;;;;;;;;;;5097808;28;20993;-79
2024/01/20 10:20:23;;;;;;;42.97;20.40;;;;;;;;;;5095150;28;20548;-79
2024/01/20 10:22:50;;;;;;;37.37;17.77;;;;;;;;;;5097210;28;20561;-79
2024/01/20 10:25:19;;;;;;;37.80;20.20;;;;;;;;;;5094405;28;20462;-79
2024/01/20 10:27:47;;;;;;;31.27;18.77;;;;;;;;;;5096356;28;20541;-80
2024/01/20 10:30:14;;;;;;;38.60;21.30;;;;;;;;;;5096048;28;20442;-79
2024/01/20 10:32:42;;;;;;;38.80;20.47;;;;;;;;;;5094377;28;20527;-78
2024/01/20 10:35:09;;;;;;;41.67;19.40;;;;;;;;;;5094732;28;20502;-79
2024/01/20 10:37:38;;;;;;;37.77;19.60;;;;;;;;;;5092993;28;20478;-79
2024/01/20 10:40:12;;;;;;;37.97;20.63;;;;;;;;;;5094430;28;20558;-79
2024/01/20 10:42:43;;;;;;;33.47;19.83;;;;;;;;;;5095926;28;20478;-78
2024/01/20 10:45:10;;;;;;;32.30;17.87;;;;;;;;;;5095762;28;20849;-79
2024/01/20 10:47:41;;;;;;;37.23;21.13;;;;;;;;;;5093178;28;20474;-79
2024/01/20 10:50:09;;;;;;;37.90;21.00;;;;;;;;;;5096618;28;20430;-79
2024/01/20 10:52:37;;;;;;;42.20;22.30;;;;;;;;;;5093365;28;20537;-78
2024/01/20 10:55:04;;;;;;;34.40;19.57;;;;;;;;;;5094370;28;20518;-79
2024/01/20 10:57:33;;;;;;;34.33;21.20;;;;;;;;;;5095694;28;20909;-78
2024/01/20 11:00:08;;;;;;;38.93;19.60;;;;;;;;;;5094314;28;20508;-79
2024/01/20 11:02:36;;;;;;;35.57;17.93;;;;;;;;;;5096319;28;20476;-79
2024/01/20 11:05:03;;;;;;;31.87;17.20;;;;;;;;;;5096218;28;21275;-79
2024/01/20 11:07:30;;;;;;;37.03;19.03;;;;;;;;;;5099747;28;20470;-80
2024/01/20 11:10:06;;;;;;;36.20;18.20;;;;;;;;;;5102281;28;20537;-81
2024/01/20 11:12:35;;;;;;;50.80;20.40;;;;;;;;;;5103129;28;20512;-79
2024/01/20 11:15:11;;;;;;;31.47;19.20;;;;;;;;;;5105097;28;20462;-80
2024/01/20 11:17:39;;;;;;;35.30;18.17;;;;;;;;;;5096823;28;20466;-78
2024/01/20 11:20:08;;;;;;;35.50;19.13;;;;;;;;;;5100497;28;20444;-81
2024/01/20 11:22:36;;;;;;;33.87;18.20;;;;;;;;;;5103233;28;20494;-78
2024/01/20 11:25:05;;;;;;;34.40;18.10;;;;;;;;;;5106389;28;20461;-78
2024/01/20 11:27:31;;;;;;;34.13;17.17;;;;;;;;;;5099523;28;21075;-78
2024/01/20 11:30:05;;;;;;;35.07;19.30;;;;;;;;;;5094433;28;20460;-78
2024/01/20 11:32:33;;;;;;;33.77;18.97;;;;;;;;;;5093502;28;20825;-81
2024/01/20 11:37:41;;;;;;;39.10;20.43;;;;;;;;;;5092121;28;20462;-77
2024/01/20 11:40:11;;;;;;;32.73;19.17;;;;;;;;;;5102486;28;20469;-78
2024/01/20 11:42:38;;;;;;;39.80;20.50;;;;;;;;;;5097889;28;20472;-77
2024/01/20 11:45:07;;;;;;;35.77;22.40;;;;;;;;;;5097805;28;20479;-77
2024/01/20 11:47:34;;;;;;;44.50;26.00;;;;;;;;;;5097363;28;20481;-77
2024/01/20 11:50:01;;;;;;;56.47;26.00;;;;;;;;;;5093425;28;20812;-78
2024/01/20 11:52:28;;;;;;;33.13;21.43;;;;;;;;;;5099012;28;20493;-78
2024/01/20 11:54:54;;;;;;;32.20;19.80;;;;;;;;;;5099788;28;20545;-78
2024/01/20 11:57:21;;;;;;;33.60;19.37;;;;;;;;;;5098843;28;20911;-78
2024/01/20 11:59:49;;;;;;;35.60;17.80;;;;;;;;;;5100442;28;20913;-77
2024/01/20 12:02:17;;;;;;;32.33;18.67;;;;;;;;;;5099458;28;20466;-77
2024/01/20 12:04:44;;;;;;;34.80;20.43;;;;;;;;;;5098081;28;20482;-77
2024/01/20 12:07:10;;;;;;;34.47;18.87;;;;;;;;;;5097741;28;20478;-77
2024/01/20 12:09:38;;;;;;;32.07;17.83;;;;;;;;;;5101320;28;21013;-78
2024/01/20 12:12:04;;;;;;;38.13;20.00;;;;;;;;;;5099688;28;20533;-77
2024/01/20 12:14:31;;;;;;;41.23;18.70;;;;;;;;;;5099916;28;20455;-78
2024/01/20 12:16:57;;;;;;;34.47;17.50;;;;;;;;;;5097945;28;21024;-77
2024/01/20 12:19:29;;;;;;;44.40;19.93;;;;;;;;;;5097554;28;20545;-81
2024/01/20 12:21:56;;;;;;;32.20;17.80;;;;;;;;;;5097272;28;20470;-79
2024/01/20 12:24:24;;;;;;;33.30;18.47;;;;;;;;;;5096832;28;20529;-77
2024/01/20 12:26:50;;;;;;;30.73;18.97;;;;;;;;;;5097121;28;20521;-80
2024/01/20 12:29:17;;;;;;;39.60;18.70;;;;;;;;;;5096446;28;20529;-79
2024/01/20 12:31:45;;;;;;;35.30;19.80;;;;;;;;;;5098610;28;20549;-77
2024/01/20 12:34:11;;;;;;;32.40;17.77;;;;;;;;;;5097444;28;20526;-80
2024/01/20 12:36:40;;;;;;;28.13;17.47;;;;;;;;;;5097856;28;20469;-77
2024/01/20 12:39:07;;;;;;;34.77;17.13;;;;;;;;;;5093668;28;20522;-80
2024/01/20 12:41:34;;;;;;;33.67;18.40;;;;;;;;;;5095284;28;20508;-79
2024/01/20 12:44:01;;;;;;;39.40;19.70;;;;;;;;;;5095590;28;20498;-77
2024/01/20 12:46:27;;;;;;;31.37;17.17;;;;;;;;;;5094528;28;20462;-77
2024/01/20 12:48:53;;;;;;;33.93;18.73;;;;;;;;;;5097201;28;20569;-80
2024/01/20 12:51:20;;;;;;;36.80;19.53;;;;;;;;;;5080432;28;20450;-79
2024/01/20 12:53:48;;;;;;;96.93;45.00;;;;;;;;;;5096032;28;20447;-78
2024/01/20 12:56:16;;;;;;;155.73;66.53;;;;;;;;;;5096218;28;20537;-80
2024/01/20 12:58:43;;;;;;;103.83;48.33;;;;;;;;;;5098338;28;20458;-77
2024/01/20 13:01:09;;;;;;;100.40;46.50;;;;;;;;;;5099252;28;20445;-78
2024/01/20 13:03:36;;;;;;;57.23;31.93;;;;;;;;;;5098317;28;20550;-79
2024/01/20 13:06:02;;;;;;;39.13;22.93;;;;;;;;;;5094910;28;20478;-78
2024/01/20 13:08:29;;;;;;;28.73;16.10;;;;;;;;;;5096497;28;20533;-79
2024/01/20 13:10:56;;;;;;;28.00;17.90;;;;;;;;;;5099708;28;20462;-78
2024/01/20 13:13:23;;;;;;;31.63;16.50;;;;;;;;;;5097646;28;21084;-79
2024/01/20 13:15:49;;;;;;;32.10;16.60;;;;;;;;;;5096827;28;20462;-78
2024/01/20 13:18:16;;;;;;;30.60;17.67;;;;;;;;;;5097233;28;20549;-78
2024/01/20 13:20:43;;;;;;;32.83;17.17;;;;;;;;;;5095362;28;20525;-79
2024/01/20 13:23:10;;;;;;;34.20;19.00;;;;;;;;;;5092248;28;20486;-79
2024/01/20 13:25:39;;;;;;;32.53;17.23;;;;;;;;;;5098328;28;20521;-79
2024/01/20 13:28:07;;;;;;;30.97;18.10;;;;;;;;;;5093224;28;20483;-78
2024/01/20 13:30:34;;;;;;;29.23;18.07;;;;;;;;;;5097403;28;20452;-78
2024/01/20 13:33:01;;;;;;;26.63;18.00;;;;;;;;;;5096317;28;20467;-79
2024/01/20 13:35:28;;;;;;;30.93;19.27;;;;;;;;;;5097799;28;20477;-79
2024/01/20 13:37:54;;;;;;;33.27;16.73;;;;;;;;;;5096825;28;21174;-78
2024/01/20 13:40:20;;;;;;;29.90;17.50;;;;;;;;;;5095455;28;20818;-78
2024/01/20 13:42:48;;;;;;;25.23;16.40;;;;;;;;;;5097856;28;20534;-78
2024/01/20 13:45:16;;;;;;;26.13;15.20;;;;;;;;;;5092306;28;20545;-77
2024/01/20 13:47:44;;;;;;;32.90;19.20;;;;;;;;;;5096451;28;20625;-78
2024/01/20 13:50:10;;;;;;;33.63;15.30;;;;;;;;;;5094651;28;20528;-78
2024/01/20 13:52:38;;;;;;;27.40;14.90;;;;;;;;;;5097385;28;20470;-77
2024/01/20 13:55:08;;;;;;;30.77;16.90;;;;;;;;;;5094541;28;20905;-78
2024/01/20 13:57:35;;;;;;;29.37;16.43;;;;;;;;;;5098189;28;20492;-77
2024/01/20 14:00:02;;;;;;;29.40;14.80;;;;;;;;;;5094126;28;20552;-78
2024/01/20 14:02:30;;;;;;;34.13;19.40;;;;;;;;;;5096602;28;20470;-77
2024/01/20 14:04:56;;;;;;;33.23;17.33;;;;;;;;;;5094803;28;20492;-78
2024/01/20 14:07:23;;;;;;;34.77;16.23;;;;;;;;;;5094498;28;21011;-78
2024/01/20 14:09:50;;;;;;;29.30;15.03;;;;;;;;;;5097107;28;20506;-78
2024/01/20 14:12:17;;;;;;;30.43;15.37;;;;;;;;;;5094868;28;20583;-77
2024/01/20 14:14:44;;;;;;;28.07;15.97;;;;;;;;;;5097031;28;20462;-78
2024/01/20 14:17:10;;;;;;;33.43;16.20;;;;;;;;;;5092224;28;20552;-78
2024/01/20 14:19:39;;;;;;;32.20;16.73;;;;;;;;;;5096622;28;20513;-77